METAR AND TAF INFORMATION
METAR FOR ESOE
ADDS - METARS form results

(2038 UTC 20 February 2020)
Data provider http://aviationweather.gov/metar/data/
 
METAR text: ESOE 202020Z 18017KT 9999 OVC010 05/04 Q0995
Conditions at: ESOE (OREBRO (PRIVATE), SE) observed 2020 UTC 20 February 2020
Temperature: 5.0°C (41°F)
Dewpoint: 4.0°C (39°F) [RH = 93%]
Pressure (altimeter): 29.38 inches Hg (995.0 mb)
Winds: from the S (180 degrees) at 20 MPH (17 knots; 8.7 m/s)
Visibility: 6 or more miles (10+ km)
Ceiling: 1000 feet AGL
Clouds: overcast cloud deck at 1000 feet AGL
Weather: no significant weather observed at this time

METAR text: ESOE 201950Z 18017KT 9999 OVC010 05/04 Q0996
Conditions at: ESOE (OREBRO (PRIVATE), SE) observed 1950 UTC 20 February 2020
Temperature: 5.0°C (41°F)
Dewpoint: 4.0°C (39°F) [RH = 93%]
Pressure (altimeter): 29.41 inches Hg (996.0 mb)
Winds: from the S (180 degrees) at 20 MPH (17 knots; 8.7 m/s)
Visibility: 6 or more miles (10+ km)
Ceiling: 1000 feet AGL
Clouds: overcast cloud deck at 1000 feet AGL
Weather: no significant weather observed at this time

Forecast for: ESOE (OREBRO (PRIVATE), SE)
Text: TAF ESOE 201730Z 2018/2022 18014G24KT 9999 -RA BKN010
Forecast period: 1800 to 2200 UTC 20 February 2020
Forecast type: FROM: standard forecast or significant change
Winds: from the S (180 degrees) at 16 MPH (14 knots; 7.2 m/s)
gusting to 28 MPH (24 knots; 12.3 m/s)
Visibility: 6 or more miles 10+ km)
Ceiling: 1000 feet AGL
Clouds: broken clouds at 1000 feet AGL
Weather: -RA  (light rain)
Text: TEMPO 2018/2022 4000 -RADZ BKN005
Forecast period: 1800 to 2200 UTC 20 February 2020
Forecast type: TEMPORARY: The following changes expected for less than half the time period
Visibility: 2.49 miles (4.01 km)
Ceiling: 500 feet AGL
Clouds: broken clouds at 500 feet AGL
Weather: -RA -DZ  (light rain, light drizzle)

 AIRPORT MAP

 RUNWAY INFORMATION
Runway 01 Runway length 8535 ft Runway width 148 ft
Runway elevation 161 ft Runway displaced threshold 0 ft Runway heading 12
Runway 19 Runway length 8535 ft Runway width 148 ft
Runway elevation 188 ft Runway displaced threshold 0 ft Runway heading 192

 AIRPORT FREQUENCIES
Type TWR Name TWR Frequency 120.275 MHZ

 AIRPORT NEAR NAVIGATION AIDS
Type NDB Name Orebro Frequency 400 KHZ
Type NDB Name Orebro Frequency 375 KHZ



Powered by Virtual Airlines Manager [v2.6.2]